首页
METAR-TAF:

METAR-TAF

机场 :

克尔曼, 伊朗

纬度: 30-15N, 经度: 056-58E, 海拔: 1748米

当前天气观测

该预报发布于17分钟前的08:00 UTC
风速6节,风向西
温度 21°C
湿度 25%
气压 1020 hPa
能见度10公里或以上
多云层高于4000英尺

METAR: OIKK 030800Z 27006KT 9999 BKN040 21/M00 Q1020 A3012

时间: 12:47 (08:17 UTC)

预报

该预报发布于3小时和17分钟前的05:00 UTC
预报有效从03日的 06点(UTC)到 04日的 12点(UTC)
风速6节,风向
能見度: 8000
少量云层高于4000英尺
散云层高于10000英尺
短暂存在
从 03日的 09点(UTC)到 03日的 18点(UTC)
风速16节,风向西,有时为26节阵风
能見度: 4000
散云层高于3500英尺, 积雨云.
散云层高于4000英尺
阴天层高于9000英尺
雷暴, 雨, 扬沙

TAF: OIKK 030500Z 0306/0412 18006KT 8000 FEW040 SCT100 TEMPO 0309/0318 26016G26KT 4000 TSRA SA SCT035CB SCT040 OVC090

超过4000个机场的气象观测和天气预报(METAR&TAF报告)。

可查询的气象台以黄色和红色小点在地图上表示。

将鼠标移到小点上方,可查看气象台名称。

然后点击查看天气观测和预报。

如需切换地图:点击带黑十字的绿色按钮放大地图;点击带横线的绿色按钮缩小地图;或者点击绿色箭头查看邻近地区的地图。


METAR-TAF: